Etusivu
METAR-TAF:

METAR-TAF

Lentoasemat :

Xi’an, Kiina

Xi’an Xianyangin kansainvälinen lentoasema

Leveyspiiri: 34-26N, Pituuspiiri: 108-45E, korkeus merenpinnasta: 479 m

Tämänhetkinen sää

Tämä raportti tehtiin 1 tunti ja 12 minuuttia sitten, kello 04.00 UTC
Tuuli 4 kn eri suunnista
Lämpötila 27°C
Kosteus 58%
Ilmanpaine 1012 hPa
Näkyvyys: 6000 m

METAR: ZLXY 210400Z VRB02MPS 6000 NSC 27/18 Q1012 NOSIG

Aika: 13:12 (05:12 UTC)

Sääennuste

Tämä raportti tehtiin 10 tuntia ja 7 minuuttia sitten, kello 19.05 UTC
Ennuste voimassa 21. päivästä klo 00 UTC - 21. päivään klo 24 UTC
Tuuli 6 kn idästä/koillisesta
Näkyvyys: 3000 m
utua

TAF: ZLXY 201905Z 2100/2124 06003MPS 3000 BR NSC TX30/2107Z TN18/2121Z

Säähavainnot ja -ennusteet yli 4000 lentoasemalta (METAR- ja TAF-raportit).

Käytössä olevat sääasemat on merkitty karttaan keltaisilla ja punaisilla pisteillä.

Aseta hiiri pisteen päälle nähdäksesi sääaseman nimen.

Klikkaa sitten nähdäksesi säähavainnot ja -ennusteet.

Kartan vaihtaminen: klikkaa mustalla rastilla varustettuja vihreitä pisteitä, niin voit zoomata sisään; viivalla varustettua vihreää pistettä, niin voit zoomata ulos tai vihreitä nuolia, niin pääset viereisille kartoille.


METAR-TAF: